createdAt,value
2023-12-22T00:01:20.471Z,9.86
2023-12-22T00:03:24.113Z,9.96
2023-12-22T00:05:27.462Z,9.85
2023-12-22T00:07:30.746Z,9.84
2023-12-22T00:09:35.430Z,9.78
2023-12-22T00:11:38.521Z,9.62
2023-12-22T00:13:41.577Z,9.72
2023-12-22T00:15:44.665Z,9.50
2023-12-22T00:17:48.915Z,9.48
2023-12-22T00:19:52.342Z,9.45
2023-12-22T00:21:55.290Z,9.11
2023-12-22T00:23:58.595Z,9.40
2023-12-22T00:26:02.966Z,9.34
2023-12-22T00:28:06.218Z,9.44
2023-12-22T00:30:10.645Z,9.35
2023-12-22T00:32:13.599Z,9.33
2023-12-22T00:34:15.761Z,9.45
2023-12-22T00:36:19.672Z,9.20
2023-12-22T00:38:22.695Z,9.21
2023-12-22T00:40:25.848Z,9.37
2023-12-22T00:42:30.453Z,9.33
2023-12-22T00:44:33.453Z,9.30
2023-12-22T00:46:36.365Z,8.98
2023-12-22T00:48:39.293Z,9.15
2023-12-22T00:50:42.279Z,9.29
2023-12-22T00:52:45.271Z,9.35
2023-12-22T00:54:48.330Z,9.38
2023-12-22T00:56:51.779Z,9.28
2023-12-22T00:59:02.238Z,9.20
2023-12-22T01:01:11.797Z,9.26
2023-12-22T01:03:14.817Z,9.19
2023-12-22T01:05:18.255Z,9.47
2023-12-22T01:07:21.390Z,9.38
2023-12-22T01:09:24.791Z,9.39
2023-12-22T01:11:28.080Z,9.28
2023-12-22T01:13:31.069Z,9.33
2023-12-22T01:15:35.426Z,9.20
2023-12-22T01:17:37.669Z,9.24
2023-12-22T01:19:40.762Z,9.37
2023-12-22T01:21:43.910Z,9.44
2023-12-22T01:23:46.927Z,9.17
2023-12-22T01:25:50.062Z,9.23
2023-12-22T01:27:53.403Z,8.97
2023-12-22T01:29:55.438Z,9.31
2023-12-22T01:31:59.816Z,9.37
2023-12-22T01:34:02.898Z,9.35
2023-12-22T01:36:06.893Z,9.22
2023-12-22T01:38:10.112Z,9.11
2023-12-22T01:40:12.310Z,9.32
2023-12-22T01:42:15.277Z,9.20
2023-12-22T01:44:18.309Z,9.28
2023-12-22T01:46:21.413Z,9.22
2023-12-22T01:48:26.370Z,9.38
2023-12-22T01:50:29.679Z,9.40
2023-12-22T01:52:32.906Z,9.15
2023-12-22T01:54:36.135Z,9.38
2023-12-22T01:56:38.390Z,9.38
2023-12-22T01:58:41.625Z,9.45
2023-12-22T02:00:55.267Z,9.45
2023-12-22T02:02:57.271Z,9.57
2023-12-22T02:05:02.088Z,9.56
2023-12-22T02:07:05.688Z,9.53
2023-12-22T02:09:08.727Z,9.45
2023-12-22T02:11:11.927Z,9.64
2023-12-22T02:13:15.187Z,9.58
2023-12-22T02:15:18.136Z,9.67
2023-12-22T02:17:24.720Z,9.76
2023-12-22T02:19:39.580Z,9.69
2023-12-22T02:22:09.085Z,9.78
2023-12-22T02:24:14.269Z,9.87
2023-12-22T02:26:21.364Z,9.54
2023-12-22T02:28:25.327Z,9.17
2023-12-22T02:30:32.878Z,9.68
2023-12-22T02:32:38.047Z,9.65
2023-12-22T02:34:44.485Z,9.46
2023-12-22T02:36:48.170Z,9.70
2023-12-22T02:38:53.081Z,9.45
2023-12-22T02:40:57.756Z,9.27
2023-12-22T02:43:01.608Z,9.53
2023-12-22T02:45:04.548Z,9.09
2023-12-22T02:47:07.666Z,8.77
2023-12-22T02:49:10.949Z,9.41
2023-12-22T02:51:14.002Z,9.06
2023-12-22T02:53:17.169Z,9.42
2023-12-22T02:55:21.259Z,9.28
2023-12-22T02:57:26.228Z,9.07
2023-12-22T02:59:29.753Z,9.01
2023-12-22T03:01:32.881Z,9.34
2023-12-22T03:03:35.960Z,9.35
2023-12-22T03:05:38.055Z,9.34
2023-12-22T03:07:41.168Z,9.37
2023-12-22T03:09:45.139Z,9.14
2023-12-22T03:11:48.192Z,9.45
2023-12-22T03:13:53.882Z,9.26
2023-12-22T03:15:56.834Z,9.13
2023-12-22T03:17:59.891Z,9.39
2023-12-22T03:20:02.955Z,9.34
2023-12-22T03:22:05.938Z,9.58
2023-12-22T03:24:09.020Z,9.63
2023-12-22T03:26:11.980Z,9.42
2023-12-22T03:28:15.193Z,9.29
2023-12-22T03:30:19.556Z,9.15
2023-12-22T03:32:22.737Z,9.22
2023-12-22T03:34:25.799Z,9.29
2023-12-22T03:36:28.734Z,9.22
2023-12-22T03:38:31.766Z,9.38
2023-12-22T03:40:35.468Z,9.45
2023-12-22T03:42:38.646Z,9.30
2023-12-22T03:44:41.704Z,9.43
2023-12-22T03:46:46.098Z,9.32
2023-12-22T03:48:49.078Z,9.40
2023-12-22T03:50:52.435Z,9.49
2023-12-22T03:52:55.533Z,9.65
2023-12-22T03:54:58.682Z,9.41
2023-12-22T03:57:01.632Z,9.67
2023-12-22T03:59:03.565Z,9.64
2023-12-22T04:01:11.037Z,9.57
2023-12-22T04:03:15.912Z,9.61
2023-12-22T04:05:17.971Z,9.65
2023-12-22T04:07:21.105Z,9.63
2023-12-22T04:09:24.075Z,9.57
2023-12-22T04:11:27.003Z,9.55
2023-12-22T04:13:29.926Z,9.70
2023-12-22T04:15:33.141Z,9.61
2023-12-22T04:17:36.294Z,9.53
2023-12-22T04:19:40.786Z,9.62
2023-12-22T04:21:43.732Z,9.45
2023-12-22T04:23:46.685Z,9.26
2023-12-22T04:25:49.716Z,9.19
2023-12-22T04:27:52.687Z,9.45
2023-12-22T04:29:54.917Z,9.39
2023-12-22T04:31:58.002Z,8.85
2023-12-22T04:34:01.213Z,9.07
2023-12-22T04:36:06.178Z,9.12
2023-12-22T04:38:10.429Z,8.93
2023-12-22T04:40:14.275Z,9.29
2023-12-22T04:42:17.201Z,9.08
2023-12-22T04:44:20.299Z,8.88
2023-12-22T04:46:23.361Z,9.07
2023-12-22T04:48:26.350Z,8.93
2023-12-22T04:50:29.315Z,9.02
2023-12-22T04:52:33.720Z,9.17
2023-12-22T04:54:35.899Z,9.02
2023-12-22T04:56:38.990Z,8.84
2023-12-22T04:58:42.045Z,8.89
2023-12-22T05:00:45.167Z,8.59
2023-12-22T05:02:47.208Z,9.01
2023-12-22T05:04:50.309Z,9.13
2023-12-22T05:06:53.328Z,8.98
2023-12-22T05:08:57.868Z,8.88
2023-12-22T05:11:00.873Z,9.01
2023-12-22T05:13:04.250Z,9.00
2023-12-22T05:15:07.976Z,8.93
2023-12-22T05:17:11.339Z,8.92
2023-12-22T05:19:14.423Z,9.15
2023-12-22T05:21:17.566Z,8.82
2023-12-22T05:23:20.859Z,8.63
2023-12-22T05:25:24.394Z,9.04
2023-12-22T05:27:28.752Z,8.97
2023-12-22T05:29:31.820Z,8.99
2023-12-22T05:31:35.588Z,9.03
2023-12-22T05:33:38.539Z,9.01
2023-12-22T05:35:41.710Z,9.18
2023-12-22T05:37:43.862Z,9.13
2023-12-22T05:39:46.859Z,9.18
2023-12-22T05:41:50.276Z,9.09
2023-12-22T05:43:53.765Z,9.15
2023-12-22T05:45:56.792Z,8.99
2023-12-22T05:47:59.998Z,9.08
2023-12-22T05:50:03.379Z,9.26
2023-12-22T05:52:06.785Z,9.28
2023-12-22T05:54:09.941Z,9.50
2023-12-22T05:56:30.717Z,9.28
2023-12-22T05:58:34.975Z,9.06
2023-12-22T06:00:38.568Z,9.45
2023-12-22T06:02:41.646Z,9.49
2023-12-22T06:04:45.125Z,9.55
2023-12-22T06:06:48.161Z,9.21
2023-12-22T06:08:50.470Z,9.27
2023-12-22T06:10:53.765Z,9.47
2023-12-22T06:12:58.845Z,9.46
2023-12-22T06:15:02.286Z,9.30
2023-12-22T06:17:05.561Z,9.50
2023-12-22T06:19:08.777Z,9.14
2023-12-22T06:21:11.329Z,9.41
2023-12-22T06:23:14.343Z,9.38
2023-12-22T06:25:17.465Z,9.12
2023-12-22T06:27:20.714Z,9.16
2023-12-22T06:29:24.153Z,9.42
2023-12-22T06:31:28.484Z,9.37
2023-12-22T06:33:31.399Z,9.28
2023-12-22T06:35:35.113Z,9.42
2023-12-22T06:37:37.141Z,9.55
2023-12-22T06:39:40.567Z,9.64
2023-12-22T06:41:43.589Z,9.77
2023-12-22T06:43:46.573Z,9.78
2023-12-22T06:45:49.648Z,9.21
2023-12-22T06:47:55.249Z,9.38
2023-12-22T06:49:58.719Z,9.56
2023-12-22T06:52:02.630Z,9.73
2023-12-22T06:54:07.456Z,9.67
2023-12-22T06:56:17.642Z,9.32
2023-12-22T06:58:22.490Z,9.17
2023-12-22T07:00:25.686Z,9.68
2023-12-22T07:02:32.433Z,9.67
2023-12-22T07:05:07.884Z,9.72
2023-12-22T07:07:12.183Z,9.22
2023-12-22T07:09:29.831Z,9.88
2023-12-22T07:11:37.843Z,9.81
2023-12-22T07:13:42.205Z,9.62
2023-12-22T07:15:45.021Z,9.48
2023-12-22T07:17:48.290Z,9.53
2023-12-22T07:19:53.368Z,9.80
2023-12-22T07:21:57.995Z,9.30
2023-12-22T07:24:01.311Z,9.87
2023-12-22T07:26:04.998Z,9.90
2023-12-22T07:28:17.627Z,9.98
2023-12-22T07:30:21.899Z,9.58
2023-12-22T07:32:25.246Z,9.52
2023-12-22T07:34:29.004Z,9.65
2023-12-22T07:36:32.537Z,9.90
2023-12-22T07:38:38.383Z,9.89
2023-12-22T07:40:42.945Z,9.52
2023-12-22T07:42:46.121Z,9.64
2023-12-22T07:44:48.219Z,8.96
2023-12-22T07:46:59.852Z,8.41
2023-12-22T07:49:03.156Z,9.01
2023-12-22T07:51:06.529Z,9.12
2023-12-22T07:53:09.902Z,9.34
2023-12-22T07:55:13.524Z,9.34
2023-12-22T07:57:16.677Z,8.69
2023-12-22T07:59:27.189Z,9.00
2023-12-22T08:01:34.927Z,9.42
2023-12-22T08:03:38.406Z,9.49
2023-12-22T08:05:41.384Z,9.20
2023-12-22T08:07:44.355Z,8.92
2023-12-22T08:09:47.353Z,9.24
2023-12-22T08:11:54.012Z,9.00
2023-12-22T08:13:57.309Z,8.60
2023-12-22T08:16:00.356Z,8.87
2023-12-22T08:18:03.724Z,9.08
2023-12-22T08:20:13.760Z,8.92
2023-12-22T08:22:25.838Z,9.04
2023-12-22T08:24:31.217Z,9.22
2023-12-22T08:26:33.605Z,9.58
2023-12-22T08:28:38.220Z,9.65
2023-12-22T08:30:40.261Z,9.71
2023-12-22T08:32:43.290Z,9.50
2023-12-22T08:34:46.554Z,9.69
2023-12-22T08:36:49.759Z,9.27
2023-12-22T08:38:53.376Z,9.75
2023-12-22T08:40:59.275Z,9.79
2023-12-22T08:43:04.086Z,9.78
2023-12-22T08:45:09.192Z,9.91
2023-12-22T08:47:13.554Z,10.29
2023-12-22T08:49:15.626Z,10.15
2023-12-22T08:51:19.073Z,10.51
2023-12-22T08:53:22.612Z,9.97
2023-12-22T08:55:26.124Z,10.57
2023-12-22T08:57:28.459Z,10.69
2023-12-22T08:59:34.296Z,10.99
2023-12-22T09:01:39.014Z,11.11
2023-12-22T09:03:45.977Z,11.00
2023-12-22T09:05:49.286Z,11.32
2023-12-22T09:07:52.764Z,11.17
2023-12-22T09:09:55.328Z,11.21
2023-12-22T09:11:58.706Z,11.39
2023-12-22T09:14:02.089Z,11.51
2023-12-22T09:16:04.741Z,11.23
2023-12-22T09:18:09.948Z,11.06
2023-12-22T09:20:14.659Z,11.24
2023-12-22T09:22:18.369Z,11.32
2023-12-22T09:24:22.178Z,11.06
2023-12-22T09:28:27.637Z,11.15
2023-12-22T09:30:31.395Z,11.35
2023-12-22T09:32:34.592Z,11.09
2023-12-22T09:34:40.525Z,11.42
2023-12-22T09:36:43.597Z,11.24
2023-12-22T09:38:46.510Z,11.58
2023-12-22T09:40:50.189Z,11.71
2023-12-22T09:42:57.915Z,11.55
2023-12-22T09:45:02.159Z,11.40
2023-12-22T09:47:07.216Z,11.18
2023-12-22T09:49:11.202Z,10.83
2023-12-22T09:51:16.415Z,10.94
2023-12-22T09:53:22.572Z,10.45
2023-12-22T09:55:27.994Z,10.99
2023-12-22T09:57:31.740Z,11.14
2023-12-22T09:59:35.463Z,11.12
2023-12-22T10:01:39.704Z,11.09
2023-12-22T10:03:48.285Z,11.28
2023-12-22T10:05:51.971Z,10.95
2023-12-22T10:07:58.128Z,10.92
2023-12-22T10:10:02.410Z,10.96
2023-12-22T10:12:06.138Z,11.12
2023-12-22T10:14:10.418Z,10.83
2023-12-22T10:16:14.924Z,11.32
2023-12-22T10:18:18.547Z,10.92
2023-12-22T10:20:21.072Z,11.22
2023-12-22T10:22:25.400Z,11.25
2023-12-22T10:24:44.902Z,11.26
2023-12-22T10:26:49.464Z,11.44
2023-12-22T10:28:53.286Z,11.50
2023-12-22T10:30:57.227Z,11.49
2023-12-22T10:33:00.439Z,10.55
2023-12-22T10:35:03.948Z,11.29
2023-12-22T10:37:06.231Z,11.42
2023-12-22T10:39:11.007Z,11.21
2023-12-22T10:41:16.053Z,11.29
2023-12-22T10:43:19.161Z,11.11
2023-12-22T10:45:22.750Z,10.98
2023-12-22T10:47:26.145Z,11.45
2023-12-22T10:49:30.479Z,11.56
2023-12-22T10:51:34.150Z,11.68
2023-12-22T10:53:38.675Z,11.73
2023-12-22T10:55:42.677Z,10.99
2023-12-22T10:57:49.201Z,11.45
2023-12-22T10:59:57.830Z,11.51
2023-12-22T11:02:04.150Z,11.48
2023-12-22T11:04:10.110Z,11.52
2023-12-22T11:06:16.479Z,11.56
2023-12-22T11:08:20.292Z,11.28
2023-12-22T11:10:23.896Z,11.28
2023-12-22T11:12:28.189Z,11.42
2023-12-22T11:14:36.253Z,11.23
2023-12-22T11:16:43.563Z,11.24
2023-12-22T11:18:47.516Z,11.38
2023-12-22T11:20:52.235Z,11.07
2023-12-22T11:22:57.200Z,11.30
2023-12-22T11:25:00.343Z,11.41
2023-12-22T11:27:06.349Z,11.42
2023-12-22T11:29:10.028Z,11.39
2023-12-22T11:31:15.671Z,11.56
2023-12-22T11:33:19.179Z,11.46
2023-12-22T11:35:22.930Z,11.35
2023-12-22T11:37:36.694Z,11.67
2023-12-22T11:39:40.572Z,11.58
2023-12-22T11:41:44.354Z,11.59
2023-12-22T11:43:48.808Z,11.63
2023-12-22T11:45:52.355Z,11.82
2023-12-22T11:47:56.912Z,11.68
2023-12-22T11:50:00.149Z,11.56
2023-12-22T11:52:12.467Z,11.76
2023-12-22T11:54:45.911Z,11.88
2023-12-22T11:56:49.530Z,11.47
2023-12-22T11:58:56.235Z,11.81
2023-12-22T12:01:05.295Z,11.59
2023-12-22T12:03:09.626Z,11.48
2023-12-22T12:05:15.490Z,11.62
2023-12-22T12:07:40.754Z,11.63
2023-12-22T12:09:51.026Z,11.52
2023-12-22T12:12:13.871Z,11.91
2023-12-22T12:14:20.025Z,11.74
2023-12-22T12:16:43.033Z,11.69
2023-12-22T12:18:48.038Z,11.80
2023-12-22T12:20:50.288Z,11.70
2023-12-22T12:22:54.748Z,11.61
2023-12-22T12:24:58.231Z,11.74
2023-12-22T12:27:01.638Z,11.94
2023-12-22T12:29:07.846Z,11.97
2023-12-22T12:31:10.358Z,11.79
2023-12-22T12:33:15.016Z,11.94
2023-12-22T12:35:21.016Z,11.99
2023-12-22T12:37:24.481Z,11.85
2023-12-22T12:39:33.487Z,11.93
2023-12-22T12:41:40.648Z,12.13
2023-12-22T12:43:45.533Z,12.07
2023-12-22T12:45:48.892Z,12.16
2023-12-22T12:47:58.266Z,12.18
2023-12-22T12:50:02.197Z,12.04
2023-12-22T12:52:07.503Z,12.11
2023-12-22T12:54:11.095Z,11.99
2023-12-22T12:56:16.473Z,12.00
2023-12-22T12:58:19.653Z,11.91
2023-12-22T13:00:27.145Z,11.97
2023-12-22T13:02:30.360Z,12.02
2023-12-22T13:04:39.284Z,11.85
2023-12-22T13:06:46.863Z,12.14
2023-12-22T13:08:52.417Z,12.11
2023-12-22T13:11:02.887Z,12.20
2023-12-22T13:13:06.102Z,12.22
2023-12-22T13:15:13.031Z,12.09
2023-12-22T13:17:15.352Z,12.24
2023-12-22T13:19:18.394Z,12.05
2023-12-22T13:21:20.822Z,12.27
2023-12-22T13:23:24.158Z,12.31
2023-12-22T13:25:27.600Z,12.18
2023-12-22T13:27:30.735Z,12.27
2023-12-22T13:29:44.705Z,12.38
2023-12-22T13:31:48.021Z,12.37
2023-12-22T13:33:51.220Z,12.24
2023-12-22T13:35:59.153Z,12.30
2023-12-22T13:38:09.116Z,12.22
2023-12-22T13:40:13.697Z,12.27
2023-12-22T13:42:21.224Z,11.89
2023-12-22T13:44:29.437Z,12.10
2023-12-22T13:46:33.089Z,12.31
2023-12-22T13:48:40.939Z,12.11
2023-12-22T13:50:46.144Z,12.11
2023-12-22T13:52:51.748Z,12.07
2023-12-22T13:54:55.129Z,12.47
2023-12-22T13:56:58.971Z,12.40
2023-12-22T13:59:03.567Z,12.61
2023-12-22T14:01:15.632Z,12.60
2023-12-22T14:03:22.853Z,12.67
2023-12-22T14:05:26.121Z,12.58
2023-12-22T14:07:29.179Z,12.64
2023-12-22T14:09:34.566Z,12.64
2023-12-22T14:11:40.607Z,12.64
2023-12-22T14:13:47.549Z,12.48
2023-12-22T14:15:52.071Z,12.48
2023-12-22T14:17:55.131Z,12.49
2023-12-22T14:19:58.302Z,12.40
2023-12-22T14:22:01.537Z,12.27
2023-12-22T14:24:04.743Z,11.99
2023-12-22T14:26:07.943Z,12.01
2023-12-22T14:28:11.085Z,11.95
2023-12-22T14:30:15.205Z,11.82
2023-12-22T14:32:20.544Z,12.05
2023-12-22T14:34:23.783Z,12.13
2023-12-22T14:36:27.026Z,12.05
2023-12-22T14:38:30.222Z,12.21
2023-12-22T14:40:32.618Z,11.87
2023-12-22T14:42:35.854Z,12.01
2023-12-22T14:44:39.636Z,12.23
2023-12-22T14:46:42.778Z,11.67
2023-12-22T14:48:47.189Z,12.27
2023-12-22T14:50:50.547Z,12.15
2023-12-22T14:52:56.456Z,12.47
2023-12-22T14:54:59.538Z,12.47
2023-12-22T14:57:02.797Z,12.35
2023-12-22T14:59:07.540Z,12.44
2023-12-22T15:01:15.346Z,12.33
2023-12-22T15:03:19.897Z,12.63
2023-12-22T15:05:29.051Z,12.46
2023-12-22T15:07:33.099Z,12.58
2023-12-22T15:09:41.526Z,12.77
2023-12-22T15:11:45.726Z,12.47
2023-12-22T15:13:50.459Z,12.78
2023-12-22T15:15:55.988Z,12.57
2023-12-22T15:18:01.465Z,12.62
2023-12-22T15:20:09.413Z,12.66
2023-12-22T15:22:26.730Z,12.36
2023-12-22T15:24:32.481Z,12.41
2023-12-22T15:26:39.498Z,12.26
2023-12-22T15:28:41.796Z,12.53
2023-12-22T15:30:45.748Z,12.46
2023-12-22T15:32:53.634Z,12.57
2023-12-22T15:34:58.636Z,12.62
2023-12-22T15:37:04.072Z,12.50
2023-12-22T15:39:11.097Z,12.29
2023-12-22T15:41:18.795Z,12.32
2023-12-22T15:43:25.333Z,11.82
2023-12-22T15:45:29.802Z,12.14
2023-12-22T15:47:35.982Z,12.16
2023-12-22T15:49:43.588Z,12.35
2023-12-22T15:51:48.820Z,12.42
2023-12-22T15:53:52.273Z,12.33
2023-12-22T15:55:59.914Z,12.45
2023-12-22T15:58:04.432Z,12.42
2023-12-22T16:00:10.394Z,12.55
2023-12-22T16:02:12.893Z,12.40
2023-12-22T16:04:17.954Z,12.45
2023-12-22T16:06:21.107Z,12.53
2023-12-22T16:08:25.500Z,12.47
2023-12-22T16:10:28.512Z,12.37
2023-12-22T16:12:33.431Z,12.28
2023-12-22T16:14:37.471Z,12.26
2023-12-22T16:16:40.631Z,12.53
2023-12-22T16:18:43.607Z,12.45
2023-12-22T16:20:46.818Z,12.54
2023-12-22T16:22:51.963Z,12.43
2023-12-22T16:24:58.132Z,12.54
2023-12-22T16:27:01.500Z,12.42
2023-12-22T16:29:06.300Z,12.46
2023-12-22T16:31:09.859Z,12.72
2023-12-22T16:33:13.037Z,12.54
2023-12-22T16:35:16.384Z,12.43
2023-12-22T16:37:19.676Z,12.50
2023-12-22T16:39:22.960Z,12.64
2023-12-22T16:41:28.947Z,12.72
2023-12-22T16:43:33.571Z,12.51
2023-12-22T16:45:39.732Z,12.41
2023-12-22T16:47:44.353Z,12.66
2023-12-22T16:49:47.655Z,12.51
2023-12-22T16:51:51.164Z,12.78
2023-12-22T16:53:55.757Z,12.90
2023-12-22T16:55:58.802Z,12.63
2023-12-22T16:58:02.481Z,12.67
2023-12-22T17:00:05.243Z,12.28
2023-12-22T17:02:26.833Z,12.75
2023-12-22T17:04:33.893Z,12.80
2023-12-22T17:06:50.971Z,12.71
2023-12-22T17:08:56.501Z,12.91
2023-12-22T17:11:05.048Z,12.65
2023-12-22T17:13:11.372Z,12.46
2023-12-22T17:15:20.343Z,12.66
2023-12-22T17:17:24.952Z,12.76
2023-12-22T17:19:28.035Z,12.48
2023-12-22T17:21:31.250Z,12.56
2023-12-22T17:23:34.456Z,12.56
2023-12-22T17:25:40.757Z,12.79
2023-12-22T17:27:50.405Z,12.47
2023-12-22T17:29:53.392Z,12.35
2023-12-22T17:32:00.231Z,12.48
2023-12-22T17:34:05.166Z,12.19
2023-12-22T17:36:08.103Z,12.11
2023-12-22T17:38:12.596Z,12.14
2023-12-22T17:40:16.067Z,12.10
2023-12-22T17:42:19.212Z,11.97
2023-12-22T17:44:21.181Z,11.78
2023-12-22T17:46:24.102Z,11.90
2023-12-22T17:48:27.275Z,12.12
2023-12-22T17:50:31.817Z,12.07
2023-12-22T17:52:35.014Z,11.92
2023-12-22T17:54:38.244Z,11.51
2023-12-22T17:56:41.306Z,11.35
2023-12-22T17:58:45.015Z,11.57
2023-12-22T18:00:48.172Z,11.99
2023-12-22T18:02:50.933Z,11.82
2023-12-22T18:04:54.144Z,12.01
2023-12-22T18:06:59.692Z,12.01
2023-12-22T18:09:02.706Z,12.07
2023-12-22T18:11:05.983Z,11.81
2023-12-22T18:13:08.242Z,11.90
2023-12-22T18:15:11.888Z,11.62
2023-12-22T18:17:14.929Z,11.74
2023-12-22T18:19:18.231Z,11.58
2023-12-22T18:21:21.502Z,11.86
2023-12-22T18:23:25.983Z,11.91
2023-12-22T18:25:28.147Z,11.60
2023-12-22T18:27:32.222Z,11.61
2023-12-22T18:29:37.340Z,11.87
2023-12-22T18:31:43.618Z,11.66
2023-12-22T18:33:47.213Z,11.61
2023-12-22T18:35:51.050Z,11.57
2023-12-22T18:37:54.329Z,11.57
2023-12-22T18:39:59.105Z,11.85
2023-12-22T18:42:02.226Z,11.62
2023-12-22T18:44:06.095Z,11.77
2023-12-22T18:46:10.322Z,11.56
2023-12-22T18:48:13.744Z,11.50
2023-12-22T18:50:17.042Z,11.80
2023-12-22T18:52:19.996Z,11.81
2023-12-22T18:54:32.574Z,11.72
2023-12-22T18:56:37.299Z,11.87
2023-12-22T18:58:42.220Z,11.90
2023-12-22T19:00:44.883Z,11.66
2023-12-22T19:02:56.498Z,11.71
2023-12-22T19:05:04.441Z,11.66
2023-12-22T19:07:09.180Z,11.76
2023-12-22T19:09:13.017Z,11.91
2023-12-22T19:11:17.182Z,11.90
2023-12-22T19:13:24.523Z,11.92
2023-12-22T19:15:29.673Z,11.90
2023-12-22T19:17:34.122Z,12.05
2023-12-22T19:19:47.092Z,11.81
2023-12-22T19:24:53.196Z,11.67
2023-12-22T19:27:00.266Z,11.72
2023-12-22T19:29:06.027Z,11.65
2023-12-22T19:31:09.674Z,11.92
2023-12-22T19:33:13.935Z,12.13
2023-12-22T19:35:18.372Z,11.94
2023-12-22T19:37:22.614Z,11.71
2023-12-22T19:39:27.610Z,11.82
2023-12-22T19:41:39.110Z,11.88
2023-12-22T19:43:43.112Z,11.89
2023-12-22T19:45:53.913Z,11.83
2023-12-22T19:47:57.512Z,11.84
2023-12-22T19:50:00.802Z,11.92
2023-12-22T19:52:06.162Z,12.04
2023-12-22T19:54:09.732Z,11.51
2023-12-22T19:56:13.657Z,11.90
2023-12-22T19:58:21.322Z,12.05
2023-12-22T20:00:25.909Z,12.02
2023-12-22T20:02:30.561Z,11.70
2023-12-22T20:04:35.232Z,11.91
2023-12-22T20:06:43.883Z,11.83
2023-12-22T20:08:47.954Z,11.55
2023-12-22T20:10:51.452Z,11.96
2023-12-22T20:12:55.170Z,11.78
2023-12-22T20:14:59.000Z,11.75
2023-12-22T20:17:10.988Z,11.75
2023-12-22T20:19:14.932Z,11.84
2023-12-22T20:21:18.988Z,11.81
2023-12-22T20:23:23.723Z,11.78
2023-12-22T20:25:27.516Z,11.47
2023-12-22T20:27:33.099Z,11.30
2023-12-22T20:29:40.839Z,11.64
2023-12-22T20:31:45.743Z,11.67
2023-12-22T20:33:51.493Z,11.62
2023-12-22T20:35:55.370Z,11.18
2023-12-22T20:38:00.178Z,11.18
2023-12-22T20:40:02.141Z,11.49
2023-12-22T20:42:06.718Z,11.59
2023-12-22T20:44:09.829Z,11.71
2023-12-22T20:46:13.074Z,11.65
2023-12-22T20:48:17.057Z,11.67
2023-12-22T20:50:20.517Z,11.67
2023-12-22T20:52:25.021Z,11.73
2023-12-22T20:54:29.845Z,11.83
2023-12-22T20:56:32.368Z,11.80
2023-12-22T20:58:35.579Z,11.79
2023-12-22T21:00:38.699Z,11.40
2023-12-22T21:02:42.248Z,11.38
2023-12-22T21:04:45.190Z,11.23
2023-12-22T21:06:48.643Z,11.24
2023-12-22T21:08:53.297Z,11.28
2023-12-22T21:10:56.798Z,11.34
2023-12-22T21:12:59.742Z,11.25
2023-12-22T21:15:01.896Z,11.36
2023-12-22T21:17:05.660Z,11.05
2023-12-22T21:19:09.271Z,11.04
2023-12-22T21:21:13.379Z,10.99
2023-12-22T21:23:18.132Z,11.09
2023-12-22T21:25:22.928Z,11.09
2023-12-22T21:27:24.936Z,11.02
2023-12-22T21:29:28.121Z,11.06
2023-12-22T21:31:31.169Z,11.14
2023-12-22T21:33:34.432Z,11.11
2023-12-22T21:35:38.075Z,11.20
2023-12-22T21:37:41.129Z,11.09
2023-12-22T21:39:43.212Z,10.30
2023-12-22T21:41:51.117Z,10.83
2023-12-22T21:43:54.207Z,10.91
2023-12-22T21:45:57.286Z,10.95
2023-12-22T21:47:59.361Z,10.90
2023-12-22T21:50:02.875Z,11.23
2023-12-22T21:52:07.130Z,10.99
2023-12-22T21:54:11.741Z,11.04
2023-12-22T21:56:21.362Z,11.13
2023-12-22T21:58:26.255Z,11.29
2023-12-22T22:00:31.560Z,11.21
2023-12-22T22:02:35.095Z,10.84
2023-12-22T22:04:41.502Z,10.94
2023-12-22T22:06:45.427Z,10.54
2023-12-22T22:08:48.746Z,10.50
2023-12-22T22:10:52.790Z,10.33
2023-12-22T22:12:56.234Z,10.53
2023-12-22T22:15:00.771Z,10.78
2023-12-22T22:17:04.204Z,10.79
2023-12-22T22:19:07.301Z,10.84
2023-12-22T22:21:10.486Z,10.85
2023-12-22T22:23:15.318Z,10.85
2023-12-22T22:25:20.612Z,10.94
2023-12-22T22:27:24.105Z,11.07
2023-12-22T22:29:27.094Z,10.99
2023-12-22T22:31:32.332Z,11.02
2023-12-22T22:33:36.582Z,10.84
2023-12-22T22:35:39.998Z,10.76
2023-12-22T22:37:43.253Z,10.81
2023-12-22T22:39:46.668Z,10.53
2023-12-22T22:41:49.732Z,10.60
2023-12-22T22:43:54.012Z,10.46
2023-12-22T22:45:57.266Z,10.53
2023-12-22T22:48:03.185Z,10.43
2023-12-22T22:50:09.146Z,10.46
2023-12-22T22:52:12.921Z,10.65
2023-12-22T22:54:16.686Z,10.80
2023-12-22T22:56:19.955Z,10.90
2023-12-22T22:58:23.693Z,10.15
2023-12-22T23:00:33.716Z,10.39
2023-12-22T23:02:40.695Z,10.48
2023-12-22T23:04:47.719Z,10.61
2023-12-22T23:06:50.804Z,10.53
2023-12-22T23:08:53.997Z,10.55
2023-12-22T23:10:57.784Z,10.78
2023-12-22T23:13:07.074Z,10.82
2023-12-22T23:15:10.327Z,10.75
2023-12-22T23:17:13.918Z,10.63
2023-12-22T23:19:16.980Z,10.82
2023-12-22T23:21:21.368Z,10.97
2023-12-22T23:23:25.954Z,10.76
2023-12-22T23:25:32.678Z,10.85
2023-12-22T23:27:37.360Z,10.87
2023-12-22T23:29:43.010Z,10.71
2023-12-22T23:31:46.946Z,10.60
2023-12-22T23:33:53.058Z,10.71
2023-12-22T23:35:58.916Z,10.77
2023-12-22T23:38:09.399Z,10.62
2023-12-22T23:40:13.866Z,10.61
2023-12-22T23:42:19.495Z,10.76
2023-12-22T23:44:23.293Z,10.50
2023-12-22T23:46:27.251Z,10.60
2023-12-22T23:48:31.147Z,10.57
2023-12-22T23:50:37.529Z,10.75
2023-12-22T23:52:46.413Z,10.59
2023-12-22T23:54:55.335Z,10.48
2023-12-22T23:56:59.822Z,10.63
2023-12-22T23:59:08.953Z,10.32
